Time;durP1;ratioP1;P1;durP2;ratioP2;P2;SDS_P1;SDS_P2;PMS_P1;PMS_P2;Temp;Humidity;BMP_temperature;BMP_pressure;BME280_temperature;BME280_humidity;BME280_pressure;Samples;Min_cycle;Max_cycle;Signal;HPM_P1;HPM_P2
2022/12/10 00:01:08;;;;;;;55.90;17.42;;;1.20;99.90;;;;;;5053692;28;20503;-44
2022/12/10 00:03:34;;;;;;;50.05;16.00;;;1.20;99.90;;;;;;5053047;28;20082;-41
2022/12/10 00:06:04;;;;;;;56.13;17.98;;;1.10;99.90;;;;;;5068743;28;20024;-40
2022/12/10 00:08:30;;;;;;;56.05;18.70;;;1.10;99.90;;;;;;5070316;28;20495;-43
2022/12/10 00:10:57;;;;;;;56.50;17.67;;;1.10;99.90;;;;;;5066878;28;20482;-31
2022/12/10 00:13:23;;;;;;;42.97;15.50;;;1.00;99.90;;;;;;5055170;28;20032;-46
2022/12/10 00:15:48;;;;;;;51.42;17.55;;;1.00;99.90;;;;;;5059090;28;20028;-44
2022/12/10 00:18:14;;;;;;;43.75;16.35;;;0.90;99.90;;;;;;5070062;28;20024;-36
2022/12/10 00:20:40;;;;;;;51.00;16.88;;;0.90;99.90;;;;;;5055344;28;20029;-33
2022/12/10 00:23:06;;;;;;;64.63;17.65;;;0.90;99.90;;;;;;5051389;28;20082;-43
2022/12/10 00:25:32;;;;;;;46.70;15.88;;;0.90;99.90;;;;;;5051084;28;20036;-32
2022/12/10 00:27:58;;;;;;;46.08;15.95;;;0.90;99.90;;;;;;5054664;28;20039;-35
2022/12/10 00:30:23;;;;;;;54.20;16.88;;;0.90;99.90;;;;;;5067228;28;20500;-34
2022/12/10 00:32:49;;;;;;;54.95;16.50;;;1.00;99.90;;;;;;5052550;28;20481;-36
2022/12/10 00:35:15;;;;;;;48.85;15.93;;;1.00;99.90;;;;;;5052891;28;20035;-35
2022/12/10 00:37:40;;;;;;;44.05;15.82;;;1.00;99.90;;;;;;5072730;28;20112;-35
2022/12/10 00:40:07;;;;;;;45.75;16.45;;;0.90;99.90;;;;;;5076510;28;20049;-37
2022/12/10 00:42:33;;;;;;;46.67;16.70;;;1.00;99.90;;;;;;5062834;28;20539;-36
2022/12/10 00:44:58;;;;;;;56.08;16.90;;;1.00;99.90;;;;;;5056118;28;20546;-38
2022/12/10 00:47:24;;;;;;;45.50;16.63;;;1.10;99.90;;;;;;5073128;28;20032;-35
2022/12/10 00:49:49;;;;;;;65.53;17.13;;;1.10;99.90;;;;;;5076366;28;20377;-34
2022/12/10 00:52:15;;;;;;;63.35;17.75;;;1.10;99.90;;;;;;5072218;28;20067;-39
2022/12/10 00:54:40;;;;;;;55.38;17.55;;;1.00;99.90;;;;;;5070840;28;20067;-31
2022/12/10 00:57:06;;;;;;;71.82;15.75;;;1.00;99.90;;;;;;5067698;28;20036;-45
2022/12/10 00:59:32;;;;;;;63.65;17.40;;;0.90;99.90;;;;;;5060734;28;20477;-34
2022/12/10 01:01:58;;;;;;;60.05;17.80;;;0.90;99.90;;;;;;5073447;28;20029;-36
2022/12/10 01:04:24;;;;;;;56.33;15.27;;;1.00;99.90;;;;;;5071310;28;20023;-35
2022/12/10 01:06:54;;;;;;;46.80;14.25;;;1.00;99.90;;;;;;5054555;28;20519;-37
2022/12/10 01:09:22;;;;;;;70.20;16.60;;;0.90;99.90;;;;;;5056549;28;20033;-38
2022/12/10 01:11:50;;;;;;;48.65;15.35;;;0.80;99.90;;;;;;5056407;28;20076;-40
2022/12/10 01:14:28;;;;;;;59.83;14.00;;;0.80;99.90;;;;;;5060099;28;20029;-36
2022/12/10 01:16:56;;;;;;;41.45;12.60;;;0.80;99.90;;;;;;5072596;28;20591;-36
2022/12/10 01:19:22;;;;;;;76.25;15.63;;;0.70;99.90;;;;;;5057566;28;20044;-34
2022/12/10 01:21:54;;;;;;;60.90;15.65;;;0.70;99.90;;;;;;5055919;28;20457;-35
2022/12/10 01:24:21;;;;;;;54.03;15.23;;;0.70;99.90;;;;;;5057540;28;20041;-41
2022/12/10 01:26:47;;;;;;;46.63;15.27;;;0.80;99.90;;;;;;5060166;28;20028;-36
2022/12/10 01:29:12;;;;;;;47.67;15.63;;;0.80;99.90;;;;;;5057777;28;20040;-37
2022/12/10 01:31:38;;;;;;;59.60;16.98;;;0.80;99.90;;;;;;5067379;28;20036;-42
2022/12/10 01:34:06;;;;;;;63.88;16.20;;;0.70;99.90;;;;;;5070553;28;20025;-38
2022/12/10 01:36:35;;;;;;;56.25;16.52;;;0.80;99.90;;;;;;5069103;28;20468;-38
2022/12/10 01:39:03;;;;;;;54.55;16.95;;;0.80;99.90;;;;;;5074469;28;20032;-36
2022/12/10 01:41:41;;;;;;;59.78;16.02;;;0.80;99.90;;;;;;5071913;28;20035;-35
2022/12/10 01:44:10;;;;;;;52.35;15.48;;;0.90;99.90;;;;;;5071872;28;20083;-36
2022/12/10 01:46:44;;;;;;;55.45;16.10;;;0.90;99.90;;;;;;5066443;28;20574;-31
2022/12/10 01:49:17;;;;;;;69.40;16.95;;;1.10;99.90;;;;;;5062089;28;20045;-32
2022/12/10 01:51:45;;;;;;;87.43;16.52;;;1.00;99.90;;;;;;5073982;28;20037;-39
2022/12/10 01:54:15;;;;;;;74.05;16.45;;;1.00;99.90;;;;;;5070778;28;20028;-35
2022/12/10 01:56:45;;;;;;;59.47;16.30;;;1.00;99.90;;;;;;5068901;28;20491;-37
2022/12/10 01:59:13;;;;;;;59.08;16.23;;;1.00;99.90;;;;;;5066684;28;20116;-46
2022/12/10 02:02:08;;;;;;;63.33;15.68;;;0.90;99.90;;;;;;5057605;28;20531;-49
2022/12/10 02:04:46;;;;;;;64.22;16.75;;;0.90;99.90;;;;;;5067383;28;20028;-45
2022/12/10 02:07:17;;;;;;;60.05;18.17;;;0.90;99.90;;;;;;5075003;28;20079;-43
2022/12/10 02:09:59;;;;;;;71.30;18.55;;;0.90;99.90;;;;;;5063990;28;20033;-41
2022/12/10 02:12:29;;;;;;;71.13;18.88;;;1.00;99.90;;;;;;5059262;28;20028;-43
2022/12/10 02:15:07;;;;;;;64.97;19.58;;;1.00;99.90;;;;;;5055819;28;20052;-41
2022/12/10 02:17:45;;;;;;;92.15;19.55;;;1.00;99.90;;;;;;5055162;28;20086;-41
2022/12/10 02:20:25;;;;;;;65.47;18.60;;;1.00;99.90;;;;;;5054796;28;20013;-43
2022/12/10 02:23:11;;;;;;;70.45;18.52;;;1.10;99.90;;;;;;5060689;28;20489;-35
2022/12/10 02:25:55;;;;;;;84.47;19.90;;;1.10;99.90;;;;;;5062390;28;20166;-36
2022/12/10 02:28:55;;;;;;;83.32;19.90;;;1.10;99.90;;;;;;5062280;28;20036;-34
2022/12/10 02:31:29;;;;;;;81.82;19.85;;;1.20;99.90;;;;;;5066993;28;20500;-43
2022/12/10 02:33:58;;;;;;;86.70;20.70;;;1.20;99.90;;;;;;5073803;28;20094;-42
2022/12/10 02:36:28;;;;;;;91.78;21.25;;;1.20;99.90;;;;;;5065215;28;20021;-42
2022/12/10 02:38:56;;;;;;;71.07;19.23;;;1.20;99.90;;;;;;5056758;28;20103;-38
2022/12/10 02:41:28;;;;;;;89.20;20.25;;;1.10;99.90;;;;;;5056299;28;20493;-42
2022/12/10 02:43:56;;;;;;;87.93;22.67;;;1.10;99.90;;;;;;5062705;28;20024;-39
2022/12/10 02:46:24;;;;;;;69.95;19.85;;;1.20;99.90;;;;;;5057620;28;20048;-41
2022/12/10 02:48:50;;;;;;;88.38;20.83;;;1.20;99.90;;;;;;5061048;28;20070;-42
2022/12/10 02:51:16;;;;;;;91.00;19.20;;;1.20;99.90;;;;;;5064179;28;20075;-34
2022/12/10 02:53:43;;;;;;;64.72;17.60;;;1.20;99.90;;;;;;5062891;28;20028;-41
2022/12/10 02:56:23;;;;;;;90.72;20.42;;;1.20;99.90;;;;;;5063134;28;20054;-39
2022/12/10 02:59:04;;;;;;;97.75;22.45;;;1.20;99.90;;;;;;5065544;28;20025;-40
2022/12/10 03:01:48;;;;;;;78.38;20.50;;;1.30;99.90;;;;;;5053116;28;20020;-38
2022/12/10 03:04:22;;;;;;;86.00;20.50;;;1.40;99.90;;;;;;5052452;28;20481;-37
2022/12/10 03:06:55;;;;;;;85.18;19.10;;;1.50;99.90;;;;;;5053544;28;20029;-38
2022/12/10 03:09:32;;;;;;;71.40;20.58;;;1.40;99.90;;;;;;5053806;28;20469;-36
2022/12/10 03:12:06;;;;;;;69.47;18.90;;;1.40;99.90;;;;;;5053797;28;20029;-34
2022/12/10 03:14:35;;;;;;;108.72;20.30;;;1.50;99.90;;;;;;5053674;28;20108;-40
2022/12/10 03:17:03;;;;;;;71.40;18.30;;;1.40;99.90;;;;;;5065345;28;20491;-44
2022/12/10 03:19:42;;;;;;;78.90;20.65;;;1.40;99.90;;;;;;5054217;28;20060;-44
2022/12/10 03:22:11;;;;;;;97.93;18.15;;;1.40;99.90;;;;;;5053731;28;20477;-47
2022/12/10 03:24:39;;;;;;;85.90;20.80;;;1.40;99.90;;;;;;5053614;28;20029;-49
2022/12/10 03:27:08;;;;;;;87.82;21.00;;;1.30;99.90;;;;;;5053513;28;20089;-45
2022/12/10 03:29:39;;;;;;;153.50;21.60;;;1.30;99.90;;;;;;5056174;28;20031;-33
2022/12/10 03:32:05;;;;;;;76.22;18.08;;;1.30;99.90;;;;;;5060595;28;20608;-36
2022/12/10 03:34:31;;;;;;;97.28;18.20;;;1.30;99.90;;;;;;5058806;28;20029;-38
2022/12/10 03:36:58;;;;;;;90.57;21.55;;;1.30;99.90;;;;;;5056985;28;20033;-55
2022/12/10 03:39:25;;;;;;;80.90;21.05;;;1.30;99.90;;;;;;5062542;28;20017;-37
2022/12/10 03:41:54;;;;;;;82.60;20.42;;;1.20;99.90;;;;;;5058390;28;20060;-40
2022/12/10 03:44:35;;;;;;;104.25;21.33;;;1.10;99.90;;;;;;5060994;28;20064;-36
2022/12/10 03:47:02;;;;;;;105.45;19.80;;;1.10;99.90;;;;;;5060019;28;20115;-39
2022/12/10 03:49:27;;;;;;;70.18;17.08;;;1.20;99.90;;;;;;5063428;28;20488;-36
2022/12/10 03:51:53;;;;;;;81.45;19.38;;;1.20;99.90;;;;;;5055698;28;20036;-39
2022/12/10 03:54:19;;;;;;;63.35;17.27;;;1.20;99.90;;;;;;5056573;28;20513;-32
2022/12/10 03:56:45;;;;;;;95.25;19.05;;;1.20;99.90;;;;;;5051047;28;20178;-38
2022/12/10 03:59:11;;;;;;;83.85;18.83;;;1.10;99.90;;;;;;5063615;28;20100;-36
2022/12/10 04:01:37;;;;;;;103.75;18.92;;;1.10;99.90;;;;;;5066091;28;20025;-38
2022/12/10 04:04:04;;;;;;;120.93;19.92;;;1.10;99.90;;;;;;5068765;28;20579;-40
2022/12/10 04:06:29;;;;;;;66.05;19.90;;;1.10;99.90;;;;;;5063373;28;20476;-33
2022/12/10 04:08:55;;;;;;;95.00;20.75;;;1.10;99.90;;;;;;5070712;28;20032;-35
2022/12/10 04:11:23;;;;;;;66.65;19.23;;;1.10;99.90;;;;;;5056645;28;20108;-36
2022/12/10 04:16:35;;;;;;;70.72;19.67;;;1.20;99.90;;;;;;5067722;28;20032;-43
2022/12/10 04:19:10;;;;;;;64.57;18.48;;;1.30;99.90;;;;;;5071014;28;20473;-44
2022/12/10 04:27:22;;;;;;;61.45;17.02;;;1.20;99.90;;;;;;5060296;28;20412;-44
2022/12/10 04:29:48;;;;;;;50.33;13.93;;;1.20;99.90;;;;;;5055266;28;20029;-39
2022/12/10 04:32:13;;;;;;;48.10;15.95;;;1.10;99.90;;;;;;5064815;28;20392;-45
2022/12/10 04:34:39;;;;;;;68.70;17.20;;;1.10;99.90;;;;;;5063845;28;20396;-48
2022/12/10 04:37:05;;;;;;;51.65;14.38;;;1.20;99.90;;;;;;5072690;28;20024;-43
2022/12/10 04:39:31;;;;;;;53.97;15.95;;;1.10;99.90;;;;;;5064256;28;20039;-41
2022/12/10 04:42:16;;;;;;;61.75;15.88;;;1.10;99.90;;;;;;5067823;28;20016;-46
2022/12/10 04:44:42;;;;;;;69.80;19.58;;;1.10;99.90;;;;;;5063861;28;20607;-44
2022/12/10 04:47:09;;;;;;;43.50;14.73;;;1.10;99.90;;;;;;5052483;28;20036;-41
2022/12/10 04:49:36;;;;;;;68.77;17.30;;;1.00;99.90;;;;;;5052427;28;20031;-39
2022/12/10 04:52:02;;;;;;;85.18;16.05;;;1.00;99.90;;;;;;5054370;28;20056;-41
2022/12/10 04:54:28;;;;;;;68.85;17.30;;;1.00;99.90;;;;;;5060341;28;20430;-42
2022/12/10 04:56:54;;;;;;;86.70;16.88;;;0.90;99.90;;;;;;5053240;28;20041;-42
2022/12/10 04:59:19;;;;;;;53.03;16.75;;;0.90;99.90;;;;;;5052089;28;20039;-41
2022/12/10 05:01:45;;;;;;;52.63;15.38;;;0.90;99.90;;;;;;5064865;28;20059;-42
2022/12/10 05:04:13;;;;;;;61.85;14.90;;;0.90;99.90;;;;;;5052272;28;20473;-41
2022/12/10 05:06:39;;;;;;;69.63;14.55;;;1.00;99.90;;;;;;5051942;28;20028;-40
2022/12/10 05:09:06;;;;;;;50.95;14.98;;;1.00;99.90;;;;;;5052304;28;20025;-42
2022/12/10 05:11:33;;;;;;;52.95;15.65;;;1.00;99.90;;;;;;5063437;28;20024;-37
2022/12/10 05:14:00;;;;;;;54.60;16.10;;;1.00;99.90;;;;;;5050902;28;20028;-45
2022/12/10 05:16:28;;;;;;;56.35;16.48;;;1.10;99.90;;;;;;5065165;28;20028;-38
2022/12/10 05:18:55;;;;;;;49.03;16.45;;;1.10;99.90;;;;;;5070521;28;20044;-36
2022/12/10 05:21:22;;;;;;;56.80;14.98;;;1.10;99.90;;;;;;5058943;28;20480;-37
2022/12/10 05:23:50;;;;;;;55.95;16.25;;;1.10;99.90;;;;;;5058268;28;20033;-34
2022/12/10 05:26:17;;;;;;;;;;;1.20;99.90;;;;;;5061639;28;20078;-32
2022/12/10 05:28:47;;;;;;;58.37;14.73;;;1.10;99.90;;;;;;5055840;28;20427;-41
2022/12/10 05:31:20;;;;;;;59.08;15.13;;;1.00;99.90;;;;;;5058858;28;20362;-41
2022/12/10 05:33:47;;;;;;;73.07;17.60;;;1.00;99.90;;;;;;5065722;28;20049;-42
2022/12/10 05:36:15;;;;;;;52.65;16.45;;;0.90;99.90;;;;;;5069312;28;20507;-75
2022/12/10 05:38:41;;;;;;;;;;;1.00;99.90;;;;;;5073508;28;20552;-70
2022/12/10 05:41:13;;;;;;;57.90;14.43;;;1.00;99.90;;;;;;5058446;28;20000;-44
2022/12/10 05:43:39;;;;;;;55.10;15.77;;;0.90;99.90;;;;;;5055697;28;20475;-41
2022/12/10 05:46:08;;;;;;;37.58;13.25;;;0.90;99.90;;;;;;5067971;28;20032;-41
2022/12/10 05:48:35;;;;;;;60.63;15.50;;;0.90;99.90;;;;;;5073944;28;20119;-42
2022/12/10 05:51:08;;;;;;;43.17;13.57;;;0.90;99.90;;;;;;5063275;28;20441;-57
2022/12/10 05:53:34;;;;;;;38.55;13.75;;;0.90;99.90;;;;;;5059240;28;20037;-51
2022/12/10 05:56:12;;;;;;;52.33;14.13;;;0.80;99.90;;;;;;5057360;28;20520;-34
2022/12/10 05:58:42;;;;;;;46.92;13.75;;;0.80;99.90;;;;;;5055702;28;20025;-35
2022/12/10 06:01:11;;;;;;;44.72;13.98;;;0.80;99.90;;;;;;5056518;28;20439;-35
2022/12/10 06:03:37;;;;;;;61.90;14.38;;;0.80;99.90;;;;;;5064462;28;20036;-33
2022/12/10 06:06:03;;;;;;;45.13;13.93;;;0.70;99.90;;;;;;5067611;28;20033;-33
2022/12/10 06:08:29;;;;;;;48.33;13.93;;;0.70;99.90;;;;;;5054940;28;20419;-35
2022/12/10 06:10:57;;;;;;;53.80;13.38;;;0.70;99.90;;;;;;5068481;28;20032;-35
2022/12/10 06:13:23;;;;;;;54.45;13.50;;;0.70;99.90;;;;;;5059613;28;20040;-35
2022/12/10 06:15:48;;;;;;;56.20;13.20;;;0.70;99.90;;;;;;5061687;28;20032;-35
2022/12/10 06:18:14;;;;;;;38.75;12.85;;;0.70;99.90;;;;;;5055005;28;20017;-38
2022/12/10 06:20:40;;;;;;;43.00;15.27;;;0.60;99.90;;;;;;5060663;28;20482;-37
2022/12/10 06:23:06;;;;;;;53.80;13.15;;;0.60;99.90;;;;;;5058446;28;20032;-36
2022/12/10 06:25:32;;;;;;;41.22;13.68;;;0.70;99.90;;;;;;5054916;28;20106;-34
2022/12/10 06:27:58;;;;;;;49.55;15.27;;;0.70;99.90;;;;;;5056579;28;20543;-32
2022/12/10 06:30:24;;;;;;;39.22;13.45;;;0.70;99.90;;;;;;5066315;28;20104;-34
2022/12/10 06:32:49;;;;;;;53.50;13.73;;;0.80;99.90;;;;;;5054720;28;20468;-37
2022/12/10 06:35:15;;;;;;;72.15;16.35;;;0.80;99.90;;;;;;5062948;28;20017;-34
2022/12/10 06:37:40;;;;;;;40.78;13.27;;;0.80;99.90;;;;;;5074263;28;20027;-42
2022/12/10 06:40:07;;;;;;;53.60;13.07;;;0.80;99.90;;;;;;5065202;28;20025;-39
2022/12/10 06:42:32;;;;;;;42.53;14.45;;;0.80;99.90;;;;;;5057974;28;20061;-45
2022/12/10 06:44:58;;;;;;;48.42;12.70;;;0.80;99.90;;;;;;5054019;28;20516;-33
2022/12/10 06:47:23;;;;;;;46.33;14.20;;;0.90;99.90;;;;;;5054538;28;20041;-35
2022/12/10 06:49:49;;;;;;;37.78;12.80;;;0.90;99.90;;;;;;5066615;28;20024;-38
2022/12/10 06:52:15;;;;;;;50.75;12.82;;;0.90;99.90;;;;;;5053209;28;20029;-35
2022/12/10 06:54:40;;;;;;;37.95;12.15;;;0.90;99.90;;;;;;5053044;28;20031;-42
2022/12/10 06:57:06;;;;;;;36.88;10.38;;;1.00;99.90;;;;;;5061970;28;20047;-37
2022/12/10 06:59:31;;;;;;;30.05;11.48;;;1.00;99.90;;;;;;5071235;28;20075;-38
2022/12/10 07:01:57;;;;;;;36.10;11.13;;;1.00;99.90;;;;;;5068206;28;20122;-35
2022/12/10 07:04:23;;;;;;;64.18;13.82;;;1.00;99.90;;;;;;5057591;28;20055;-32
2022/12/10 07:06:48;;;;;;;46.75;14.20;;;1.00;99.90;;;;;;5066132;28;20111;-39
2022/12/10 07:09:14;;;;;;;44.85;15.52;;;1.00;99.90;;;;;;5052880;28;20473;-36
2022/12/10 07:11:58;;;;;;;37.58;12.68;;;0.90;99.90;;;;;;5071682;28;20059;-40
2022/12/10 07:14:24;;;;;;;43.33;12.95;;;1.00;99.90;;;;;;5055272;28;20028;-37
2022/12/10 07:16:50;;;;;;;38.03;12.13;;;1.00;99.90;;;;;;5059137;28;20548;-34
2022/12/10 07:19:15;;;;;;;44.55;13.93;;;1.00;99.90;;;;;;5071263;28;20055;-34
2022/12/10 07:21:42;;;;;;;41.53;12.70;;;1.00;99.90;;;;;;5061506;28;20029;-42
2022/12/10 07:24:11;;;;;;;42.25;13.55;;;1.00;99.90;;;;;;5052790;28;20033;-39
2022/12/10 07:26:39;;;;;;;47.10;12.43;;;1.10;99.90;;;;;;5063620;28;20028;-40
2022/12/10 07:29:07;;;;;;;36.35;12.35;;;1.10;99.90;;;;;;5073391;28;20043;-41
2022/12/10 07:31:34;;;;;;;36.83;12.55;;;1.10;99.90;;;;;;5056134;28;20492;-37
2022/12/10 07:33:59;;;;;;;41.47;13.27;;;1.10;99.90;;;;;;5058590;28;20516;-40
2022/12/10 07:36:26;;;;;;;49.13;13.95;;;1.10;99.90;;;;;;5073223;28;20016;-42
2022/12/10 07:38:53;;;;;;;37.58;12.60;;;1.10;99.90;;;;;;5073336;28;20074;-47
2022/12/10 07:41:20;;;;;;;37.80;12.15;;;1.00;99.90;;;;;;5069187;28;20107;-44
2022/12/10 07:43:46;;;;;;;38.53;13.07;;;1.00;99.90;;;;;;5064431;28;20035;-42
2022/12/10 07:46:27;;;;;;;57.13;14.10;;;0.90;99.90;;;;;;5066888;28;20025;-40
2022/12/10 07:48:54;;;;;;;40.38;14.90;;;0.90;99.90;;;;;;5058906;28;20029;-52
2022/12/10 07:51:22;;;;;;;40.63;13.00;;;0.90;99.90;;;;;;5059883;28;20024;-42
2022/12/10 07:53:51;;;;;;;52.10;15.63;;;0.90;99.90;;;;;;5071653;28;20075;-42
2022/12/10 07:56:17;;;;;;;49.53;15.32;;;1.00;99.90;;;;;;5056619;28;20102;-42
2022/12/10 07:58:44;;;;;;;45.58;13.88;;;1.00;99.90;;;;;;5061931;28;20024;-41
2022/12/10 08:01:12;;;;;;;65.35;15.18;;;1.00;99.90;;;;;;5068773;28;20476;-42
2022/12/10 08:03:38;;;;;;;70.47;15.55;;;1.10;99.90;;;;;;5068915;28;20028;-43
2022/12/10 08:06:23;;;;;;;54.63;16.30;;;1.00;99.90;;;;;;5058193;28;20028;-42
2022/12/10 08:08:49;;;;;;;48.40;15.38;;;1.00;99.90;;;;;;5054914;28;20033;-41
2022/12/10 08:11:16;;;;;;;40.47;14.40;;;1.00;99.90;;;;;;5060632;28;20485;-43
2022/12/10 08:13:43;;;;;;;48.97;13.77;;;1.00;99.90;;;;;;5071037;28;20028;-43
2022/12/10 08:16:13;;;;;;;46.95;14.10;;;1.00;99.90;;;;;;5057781;28;20388;-41
2022/12/10 08:18:38;;;;;;;42.95;14.13;;;1.00;99.90;;;;;;5067037;28;20158;-42
2022/12/10 08:21:10;;;;;;;43.85;14.13;;;0.90;99.90;;;;;;5068219;28;20520;-48
2022/12/10 08:23:36;;;;;;;77.47;15.88;;;1.00;99.90;;;;;;5054414;28;20078;-63
2022/12/10 08:26:06;;;;;;;45.47;14.35;;;1.00;99.90;;;;;;5056094;28;20496;-43
2022/12/10 08:28:32;;;;;;;53.40;15.18;;;0.90;99.90;;;;;;5051283;28;20052;-40
2022/12/10 08:30:58;;;;;;;49.88;12.57;;;0.90;99.90;;;;;;5051760;28;20481;-42
2022/12/10 08:33:24;;;;;;;46.83;15.13;;;0.90;99.90;;;;;;5065273;28;20017;-40
2022/12/10 08:35:50;;;;;;;56.22;15.82;;;0.80;99.90;;;;;;5056047;28;20031;-43
2022/12/10 08:38:15;;;;;;;58.97;16.15;;;0.80;99.90;;;;;;5065279;28;20053;-44
2022/12/10 08:40:41;;;;;;;54.88;14.88;;;0.80;99.90;;;;;;5057232;28;20024;-36
2022/12/10 08:43:08;;;;;;;67.05;15.93;;;0.70;99.90;;;;;;5071185;28;20053;-33
2022/12/10 08:45:33;;;;;;;55.08;15.98;;;0.80;99.90;;;;;;5065368;28;20102;-33
2022/12/10 08:48:01;;;;;;;56.88;16.13;;;0.80;99.90;;;;;;5055059;28;20429;-36
2022/12/10 08:50:27;;;;;;;48.30;14.97;;;0.80;99.90;;;;;;5053814;28;20025;-33
2022/12/10 08:52:52;;;;;;;49.70;15.98;;;0.90;99.90;;;;;;5063019;28;20034;-35
2022/12/10 08:55:18;;;;;;;61.83;16.10;;;0.90;99.90;;;;;;5054546;28;20546;-36
2022/12/10 08:57:43;;;;;;;57.13;15.38;;;0.80;99.90;;;;;;5065696;28;20104;-36
2022/12/10 09:00:10;;;;;;;52.88;16.80;;;0.80;99.90;;;;;;5061859;28;20023;-37
2022/12/10 09:02:36;;;;;;;67.22;14.95;;;0.80;99.90;;;;;;5066106;28;20021;-37
2022/12/10 09:05:02;;;;;;;60.88;15.45;;;0.80;99.90;;;;;;5055524;28;20078;-38
2022/12/10 09:07:29;;;;;;;56.30;15.98;;;0.80;99.90;;;;;;5059283;28;20016;-35
2022/12/10 09:09:54;;;;;;;43.95;14.10;;;0.90;99.90;;;;;;5072989;28;20464;-34
2022/12/10 09:12:20;;;;;;;50.45;16.60;;;0.90;99.90;;;;;;5071422;28;20111;-36
2022/12/10 09:14:46;;;;;;;58.95;16.30;;;1.00;99.90;;;;;;5064976;28;20024;-35
2022/12/10 09:17:11;;;;;;;65.78;15.82;;;0.90;99.90;;;;;;5069599;28;20020;-36
2022/12/10 09:19:37;;;;;;;69.28;17.33;;;1.00;99.90;;;;;;5065135;28;20021;-40
2022/12/10 09:22:02;;;;;;;54.05;15.70;;;1.00;99.90;;;;;;5061093;28;20123;-33
2022/12/10 09:24:28;;;;;;;52.60;13.88;;;1.00;99.90;;;;;;5060987;28;20021;-35
2022/12/10 09:26:54;;;;;;;48.17;16.63;;;0.90;99.90;;;;;;5062264;28;20457;-37
2022/12/10 09:29:19;;;;;;;60.70;15.07;;;1.00;99.90;;;;;;5055132;28;20086;-39
2022/12/10 09:31:49;;;;;;;54.35;16.25;;;1.00;99.90;;;;;;5069765;28;20051;-35
2022/12/10 09:34:15;;;;;;;52.72;15.13;;;0.90;99.90;;;;;;5072849;28;20069;-33
2022/12/10 09:36:40;;;;;;;49.75;14.57;;;1.00;99.90;;;;;;5064212;28;20388;-39
2022/12/10 09:39:06;;;;;;;47.95;14.52;;;1.00;99.90;;;;;;5067971;28;20023;-33
2022/12/10 09:41:34;;;;;;;58.03;19.30;;;0.90;99.90;;;;;;5071163;28;20031;-41
2022/12/10 09:44:31;;;;;;;50.83;15.43;;;0.90;99.90;;;;;;5054764;28;20052;-34
2022/12/10 09:47:00;;;;;;;73.13;22.33;;;0.90;99.90;;;;;;5068067;28;20405;-34
2022/12/10 09:49:56;;;;;;;52.85;15.20;;;0.90;99.90;;;;;;5055344;28;20452;-34
2022/12/10 09:52:24;;;;;;;53.55;15.20;;;1.00;99.90;;;;;;5062049;28;20032;-34
2022/12/10 09:54:57;;;;;;;46.35;14.38;;;0.90;99.90;;;;;;5075339;28;20491;-33
2022/12/10 09:57:38;;;;;;;54.15;14.35;;;0.90;99.90;;;;;;5075007;28;20127;-35
2022/12/10 10:00:15;;;;;;;63.17;16.83;;;1.00;99.90;;;;;;5075102;28;20385;-38
2022/12/10 10:02:41;;;;;;;59.85;14.85;;;1.00;99.90;;;;;;5073308;28;20017;-36
2022/12/10 10:05:07;;;;;;;52.75;15.05;;;1.00;99.90;;;;;;5073707;28;20036;-37
2022/12/10 10:07:36;;;;;;;62.10;16.13;;;1.10;99.90;;;;;;5073281;28;20032;-34
2022/12/10 10:10:18;;;;;;;68.28;18.08;;;1.10;99.90;;;;;;5074682;28;20107;-43
2022/12/10 10:12:43;;;;;;;59.67;16.05;;;1.10;99.90;;;;;;5072926;28;20039;-43
2022/12/10 10:15:21;;;;;;;61.75;17.55;;;1.20;99.90;;;;;;5074843;28;20028;-46
2022/12/10 10:17:49;;;;;;;64.05;16.95;;;1.10;99.90;;;;;;5073645;28;20025;-45
2022/12/10 10:20:15;;;;;;;56.30;14.88;;;1.20;99.90;;;;;;5074753;28;20016;-32
2022/12/10 10:22:41;;;;;;;65.72;14.32;;;1.20;99.90;;;;;;5072648;28;20492;-33
2022/12/10 10:25:15;;;;;;;56.08;16.60;;;1.20;99.90;;;;;;5074735;28;20048;-36
2022/12/10 10:27:40;;;;;;;57.58;15.80;;;1.10;99.90;;;;;;5073313;28;20110;-35
2022/12/10 10:30:13;;;;;;;60.00;15.93;;;1.10;99.90;;;;;;5074631;28;20029;-37
2022/12/10 10:32:38;;;;;;;54.47;13.90;;;1.00;99.90;;;;;;5073090;28;20039;-34
2022/12/10 10:35:06;;;;;;;62.65;16.08;;;1.00;99.90;;;;;;5074667;28;20028;-33
2022/12/10 10:37:40;;;;;;;53.05;13.88;;;1.00;99.90;;;;;;5072608;28;20021;-36
2022/12/10 10:40:20;;;;;;;48.92;14.10;;;1.00;99.90;;;;;;5074348;28;20020;-37
2022/12/10 10:42:46;;;;;;;48.55;14.02;;;1.00;99.90;;;;;;5059631;28;20481;-43
2022/12/10 10:45:30;;;;;;;54.88;15.98;;;1.00;99.90;;;;;;5054422;28;20029;-46
2022/12/10 10:48:07;;;;;;;50.85;14.18;;;0.90;99.90;;;;;;5054215;28;20481;-45
2022/12/10 10:50:38;;;;;;;51.45;12.50;;;1.00;99.90;;;;;;5061166;28;20029;-39
2022/12/10 10:53:24;;;;;;;66.90;15.85;;;1.00;99.90;;;;;;5073869;28;20028;-43
2022/12/10 10:55:53;;;;;;;60.30;16.40;;;1.10;99.90;;;;;;5073948;28;20085;-43
2022/12/10 10:58:20;;;;;;;59.67;14.23;;;1.10;99.90;;;;;;5074070;28;20464;-44
2022/12/10 11:00:59;;;;;;;61.80;17.55;;;1.30;99.90;;;;;;5059468;28;20028;-45
2022/12/10 11:03:28;;;;;;;47.70;14.80;;;1.30;99.90;;;;;;5054074;28;20538;-43
2022/12/10 11:05:55;;;;;;;63.88;15.35;;;1.30;99.90;;;;;;5053927;28;20035;-44
2022/12/10 11:08:24;;;;;;;51.65;14.25;;;1.30;99.90;;;;;;5052729;28;20116;-43
2022/12/10 11:10:55;;;;;;;58.20;15.27;;;1.30;99.90;;;;;;5054121;28;20512;-42
2022/12/10 11:13:26;;;;;;;56.58;15.50;;;1.40;99.90;;;;;;5054080;28;20108;-43
2022/12/10 11:16:19;;;;;;;57.35;14.48;;;1.30;99.90;;;;;;5053694;28;20028;-43
2022/12/10 11:19:02;;;;;;;54.17;15.00;;;1.30;99.90;;;;;;5050586;28;20120;-39
2022/12/10 11:21:30;;;;;;;59.10;14.70;;;1.30;99.90;;;;;;5053948;28;20407;-33
2022/12/10 11:23:57;;;;;;;59.63;15.32;;;1.30;99.90;;;;;;5062701;28;20542;-36
2022/12/10 11:26:25;;;;;;;49.03;13.55;;;1.30;99.90;;;;;;5073713;28;20074;-34
2022/12/10 11:28:58;;;;;;;57.78;15.48;;;1.30;99.90;;;;;;5072746;28;20032;-34
2022/12/10 11:31:39;;;;;;;55.42;15.35;;;1.30;99.90;;;;;;5073684;28;20036;-34
2022/12/10 11:34:26;;;;;;;71.95;16.00;;;1.30;99.90;;;;;;5073191;28;20377;-36
2022/12/10 11:37:28;;;;;;;58.17;16.20;;;1.40;99.90;;;;;;5056667;28;20404;-37
2022/12/10 11:40:12;;;;;;;63.38;14.32;;;1.40;99.90;;;;;;5053175;28;20029;-32
2022/12/10 11:42:57;;;;;;;55.90;13.75;;;1.30;99.90;;;;;;5053126;28;20048;-32
2022/12/10 11:45:48;;;;;;;53.95;13.50;;;1.30;99.90;;;;;;5052663;28;20036;-37
2022/12/10 11:48:49;;;;;;;45.30;13.35;;;1.30;99.90;;;;;;5053313;28;20037;-31
2022/12/10 11:51:38;;;;;;;49.30;13.77;;;1.40;99.90;;;;;;5060219;28;20027;-33
2022/12/10 11:54:25;;;;;;;47.05;13.85;;;1.40;99.90;;;;;;5072949;28;20032;-37
2022/12/10 11:57:16;;;;;;;56.30;13.02;;;1.30;99.90;;;;;;5071445;28;20072;-36
2022/12/10 12:00:13;;;;;;;50.20;14.20;;;1.40;99.90;;;;;;5072936;28;20012;-33
2022/12/10 12:03:03;;;;;;;58.85;14.02;;;1.30;99.90;;;;;;5072938;28;20074;-46
2022/12/10 12:05:53;;;;;;;60.58;13.23;;;1.30;99.90;;;;;;5072230;28;20495;-44
2022/12/10 12:08:40;;;;;;;47.05;13.15;;;1.30;99.90;;;;;;5053146;28;20551;-44
2022/12/10 12:11:42;;;;;;;41.58;11.43;;;1.30;99.90;;;;;;5052919;28;20021;-44
2022/12/10 12:14:31;;;;;;;48.05;10.95;;;1.20;99.90;;;;;;5051472;28;20140;-43
2022/12/10 12:17:21;;;;;;;46.97;13.60;;;1.20;99.90;;;;;;5052800;28;20021;-42
2022/12/10 12:19:52;;;;;;;52.50;12.77;;;1.10;99.90;;;;;;5052809;28;20056;-51
2022/12/10 12:22:32;;;;;;;47.83;12.23;;;1.20;99.90;;;;;;5063505;28;20028;-41
2022/12/10 12:25:22;;;;;;;46.63;13.27;;;1.30;99.90;;;;;;5053239;28;20544;-42
2022/12/10 12:27:53;;;;;;;45.75;12.10;;;1.30;99.90;;;;;;5052796;28;20017;-57
2022/12/10 12:30:21;;;;;;;47.60;11.88;;;1.30;99.90;;;;;;5052517;28;20062;-33
2022/12/10 12:33:11;;;;;;;56.42;13.95;;;1.20;99.90;;;;;;5051878;28;20033;-33
2022/12/10 12:35:44;;;;;;;49.53;13.38;;;1.20;99.90;;;;;;5056240;28;20028;-37
2022/12/10 12:38:16;;;;;;;38.65;12.55;;;1.20;99.90;;;;;;5073871;28;20103;-35
2022/12/10 12:40:50;;;;;;;51.33;13.20;;;1.30;99.90;;;;;;5076608;28;20024;-35
2022/12/10 12:43:23;;;;;;;46.85;13.52;;;1.30;99.90;;;;;;5067296;28;20017;-45
2022/12/10 12:45:52;;;;;;;40.85;11.65;;;1.30;99.90;;;;;;5057146;28;20032;-42
2022/12/10 12:48:36;;;;;;;52.13;13.05;;;1.30;99.90;;;;;;5056625;28;20025;-42
2022/12/10 12:51:09;;;;;;;59.38;13.20;;;1.30;99.90;;;;;;5057236;28;20029;-46
2022/12/10 12:53:35;;;;;;;55.17;12.90;;;1.30;99.90;;;;;;5057697;28;20025;-45
2022/12/10 12:56:34;;;;;;;40.38;11.82;;;1.30;99.90;;;;;;5076193;28;20044;-47
2022/12/10 12:58:59;;;;;;;58.45;12.45;;;1.30;99.90;;;;;;5076427;28;20092;-53
2022/12/10 13:01:49;;;;;;;50.65;13.13;;;1.40;99.90;;;;;;5061214;28;20543;-36
2022/12/10 13:04:18;;;;;;;47.78;11.45;;;1.40;99.90;;;;;;5076506;28;20472;-39